Middle Creek, Pennsylvania
Current Conditions -  °F | °C
As of 8:53 AM on Thursday 23 Oct 2014 (Local Time) from KSEG Reporting Station
Overcast Overcast  
Wind Chill: 12°   Ceiling: 2800
Heat Index: 12°   Visibility: 10mi
Dew Point:   Wind: 8mph
Humidity: 66%   Direction: 330°NNW
Pressure: 29.92"   Gusts: 20mph
Location:  40.817°N, 76.9715°W
Report Text: KSEG 231253Z AUTO 33007G17KT 10SM OVC028 12/06 A2992 RMK AO2 SLP131 T01170056
Loading
Personal Weather Stations






























Interactive Weather Map
Tropical Storm Tracking
New forecast layout! Learn more

10-Day Weather Forecast

Advertisements
Track Severe Weather on mobile